createdAt,value
2022-08-25T00:01:53.799Z,1.60
2022-08-25T00:04:23.396Z,1.90
2022-08-25T00:06:53.037Z,1.67
2022-08-25T00:09:23.297Z,1.67
2022-08-25T00:11:53.672Z,1.60
2022-08-25T00:14:23.213Z,1.48
2022-08-25T00:16:51.701Z,1.60
2022-08-25T00:19:25.793Z,1.70
2022-08-25T00:21:54.573Z,1.20
2022-08-25T00:24:24.481Z,1.40
2022-08-25T00:26:55.359Z,1.33
2022-08-25T00:29:25.902Z,1.63
2022-08-25T00:31:54.993Z,1.85
2022-08-25T00:34:24.473Z,1.20
2022-08-25T00:36:52.965Z,1.33
2022-08-25T00:39:22.074Z,1.73
2022-08-25T00:41:52.184Z,1.80
2022-08-25T00:44:22.320Z,1.60
2022-08-25T00:46:51.404Z,1.40
2022-08-25T00:49:25.290Z,1.58
2022-08-25T00:51:55.960Z,1.50
2022-08-25T00:54:27.124Z,1.27
2022-08-25T00:56:55.818Z,1.65
2022-08-25T00:59:27.203Z,1.30
2022-08-25T01:01:56.317Z,1.50
2022-08-25T01:04:25.510Z,1.40
2022-08-25T01:06:55.747Z,1.55
2022-08-25T01:09:24.219Z,1.58
2022-08-25T01:11:52.908Z,1.60
2022-08-25T01:14:22.049Z,1.58
2022-08-25T01:16:54.003Z,1.52
2022-08-25T01:19:23.041Z,1.50
2022-08-25T01:21:54.045Z,1.52
2022-08-25T01:24:25.694Z,1.48
2022-08-25T01:26:54.170Z,1.50
2022-08-25T01:29:22.641Z,1.65
2022-08-25T01:31:51.365Z,2.25
2022-08-25T01:34:21.388Z,1.75
2022-08-25T01:36:49.959Z,1.95
2022-08-25T01:39:19.869Z,1.60
2022-08-25T01:41:52.139Z,1.45
2022-08-25T01:44:20.773Z,1.70
2022-08-25T01:46:49.241Z,1.80
2022-08-25T01:49:17.712Z,1.67
2022-08-25T01:51:48.952Z,1.80
2022-08-25T01:54:17.393Z,1.60
2022-08-25T01:56:47.276Z,1.70
2022-08-25T01:59:23.987Z,1.55
2022-08-25T02:01:59.767Z,1.65
2022-08-25T02:04:29.592Z,1.65
2022-08-25T02:06:58.072Z,1.88
2022-08-25T02:09:26.592Z,1.50
2022-08-25T02:11:56.973Z,1.60
2022-08-25T02:14:25.948Z,1.75
2022-08-25T02:16:56.130Z,2.15
2022-08-25T02:19:26.000Z,1.98
2022-08-25T02:21:54.689Z,1.92
2022-08-25T02:24:23.235Z,1.90
2022-08-25T02:26:51.919Z,2.10
2022-08-25T02:29:21.751Z,1.70
2022-08-25T02:31:50.255Z,1.75
2022-08-25T02:34:18.748Z,1.67
2022-08-25T02:36:47.221Z,1.58
2022-08-25T02:39:15.695Z,1.50
2022-08-25T02:41:44.465Z,1.73
2022-08-25T02:44:12.977Z,1.60
2022-08-25T02:46:42.809Z,1.70
2022-08-25T02:49:11.493Z,1.45
2022-08-25T02:51:39.991Z,1.40
2022-08-25T02:54:08.446Z,1.80
2022-08-25T02:56:36.922Z,1.88
2022-08-25T02:59:05.677Z,1.70
2022-08-25T03:01:34.308Z,1.60
2022-08-25T03:04:04.321Z,1.73
2022-08-25T03:06:32.963Z,1.50
2022-08-25T03:09:01.550Z,1.83
2022-08-25T03:11:30.084Z,1.60
2022-08-25T03:13:58.635Z,1.63
2022-08-25T03:16:28.122Z,1.60
2022-08-25T03:18:57.461Z,1.67
2022-08-25T03:21:27.503Z,1.55
2022-08-25T03:23:56.063Z,1.83
2022-08-25T03:26:42.728Z,2.38
2022-08-25T03:29:11.380Z,2.17
2022-08-25T03:31:40.112Z,2.05
2022-08-25T03:34:09.294Z,2.42
2022-08-25T03:36:39.232Z,2.10
2022-08-25T03:39:08.522Z,1.80
2022-08-25T03:41:37.213Z,1.88
2022-08-25T03:44:07.068Z,1.90
2022-08-25T03:46:37.129Z,1.85
2022-08-25T03:49:06.185Z,1.95
2022-08-25T03:51:36.051Z,1.77
2022-08-25T03:54:06.616Z,2.15
2022-08-25T03:56:35.613Z,1.77
2022-08-25T03:59:04.508Z,2.30
2022-08-25T04:01:33.100Z,2.15
2022-08-25T04:04:01.624Z,1.80
2022-08-25T04:06:30.127Z,2.28
2022-08-25T04:08:59.849Z,1.90
2022-08-25T04:11:30.202Z,2.08
2022-08-25T04:13:59.233Z,1.88
2022-08-25T04:16:30.471Z,1.80
2022-08-25T04:18:59.569Z,1.92
2022-08-25T04:21:28.569Z,1.85
2022-08-25T04:23:58.132Z,1.70
2022-08-25T04:26:27.728Z,1.90
2022-08-25T04:28:58.621Z,1.83
2022-08-25T04:31:27.167Z,1.85
2022-08-25T04:33:55.726Z,1.92
2022-08-25T04:36:24.695Z,2.08
2022-08-25T04:38:53.177Z,2.10
2022-08-25T04:41:22.897Z,2.08
2022-08-25T04:43:51.445Z,1.98
2022-08-25T04:46:22.415Z,2.20
2022-08-25T04:48:51.732Z,2.00
2022-08-25T04:51:21.021Z,1.88
2022-08-25T04:53:49.743Z,1.73
2022-08-25T04:56:26.227Z,2.05
2022-08-25T04:58:55.397Z,2.55
2022-08-25T05:01:26.805Z,2.40
2022-08-25T05:03:56.960Z,2.53
2022-08-25T05:06:25.573Z,2.60
2022-08-25T05:08:54.402Z,2.15
2022-08-25T05:11:23.640Z,2.15
2022-08-25T05:13:53.570Z,2.60
2022-08-25T05:16:22.588Z,2.30
2022-08-25T05:18:53.157Z,2.53
2022-08-25T05:21:24.226Z,2.20
2022-08-25T05:23:56.769Z,2.50
2022-08-25T05:26:26.409Z,2.50
2022-08-25T05:28:55.589Z,2.30
2022-08-25T05:31:25.089Z,2.40
2022-08-25T05:33:56.942Z,2.03
2022-08-25T05:36:26.393Z,2.30
2022-08-25T05:38:54.984Z,2.03
2022-08-25T05:41:27.160Z,2.30
2022-08-25T05:43:55.765Z,2.40
2022-08-25T05:46:24.643Z,2.45
2022-08-25T05:48:53.282Z,2.45
2022-08-25T05:51:23.675Z,2.45
2022-08-25T05:53:53.033Z,2.00
2022-08-25T05:56:21.754Z,2.50
2022-08-25T05:58:50.644Z,2.83
2022-08-25T06:01:41.115Z,2.15
2022-08-25T06:04:12.101Z,1.90
2022-08-25T06:06:42.393Z,1.70
2022-08-25T06:09:11.319Z,1.73
2022-08-25T06:11:40.549Z,1.75
2022-08-25T06:14:09.100Z,1.90
2022-08-25T06:16:38.581Z,1.50
2022-08-25T06:19:07.320Z,1.60
2022-08-25T06:21:35.873Z,1.58
2022-08-25T06:24:06.110Z,1.75
2022-08-25T06:26:34.593Z,1.38
2022-08-25T06:29:03.068Z,1.05
2022-08-25T06:31:31.778Z,1.50
2022-08-25T06:34:00.354Z,1.33
2022-08-25T06:36:28.880Z,1.30
2022-08-25T06:38:57.361Z,1.10
2022-08-25T06:41:36.762Z,1.30
2022-08-25T06:44:06.198Z,1.27
2022-08-25T06:46:36.124Z,1.40
2022-08-25T06:49:05.644Z,1.60
2022-08-25T06:51:35.677Z,1.30
2022-08-25T06:54:04.461Z,1.23
2022-08-25T06:56:35.218Z,1.30
2022-08-25T06:59:03.923Z,1.30
2022-08-25T07:01:33.030Z,1.13
2022-08-25T07:04:02.678Z,1.20
2022-08-25T07:06:32.743Z,1.17
2022-08-25T07:09:01.535Z,1.25
2022-08-25T07:11:34.236Z,1.27
2022-08-25T07:14:05.335Z,1.33
2022-08-25T07:16:33.960Z,1.00
2022-08-25T07:19:02.736Z,1.30
2022-08-25T07:21:33.699Z,1.42
2022-08-25T07:24:06.302Z,1.20
2022-08-25T07:26:38.527Z,1.42
2022-08-25T07:29:12.568Z,1.48
2022-08-25T07:31:41.638Z,1.48
2022-08-25T07:34:28.574Z,1.35
2022-08-25T07:36:58.068Z,1.33
2022-08-25T07:39:27.069Z,1.10
2022-08-25T07:41:57.861Z,1.30
2022-08-25T07:44:28.481Z,1.10
2022-08-25T07:46:57.031Z,1.10
2022-08-25T07:49:26.349Z,1.10
2022-08-25T07:52:06.735Z,1.20
2022-08-25T07:54:37.838Z,1.35
2022-08-25T07:57:07.934Z,1.10
2022-08-25T07:59:40.974Z,0.80
2022-08-25T08:02:18.199Z,0.95
2022-08-25T08:04:48.751Z,0.82
2022-08-25T08:07:18.608Z,0.77
2022-08-25T08:09:53.096Z,0.90
2022-08-25T08:12:29.121Z,1.00
2022-08-25T08:15:00.183Z,1.00
2022-08-25T08:17:29.011Z,1.00
2022-08-25T08:19:57.517Z,0.90
2022-08-25T08:22:26.256Z,0.90
2022-08-25T08:24:56.449Z,0.90
2022-08-25T08:27:25.692Z,1.38
2022-08-25T08:29:54.734Z,0.90
2022-08-25T08:32:31.508Z,0.77
2022-08-25T08:35:13.237Z,0.80
2022-08-25T08:37:42.562Z,1.17
2022-08-25T08:40:12.045Z,0.77
2022-08-25T08:42:47.181Z,1.00
2022-08-25T08:45:24.336Z,0.90
2022-08-25T08:48:02.010Z,1.10
2022-08-25T08:50:33.745Z,0.80
2022-08-25T08:53:05.127Z,0.75
2022-08-25T08:55:35.032Z,0.90
2022-08-25T08:58:05.413Z,0.60
2022-08-25T09:00:35.249Z,0.90
2022-08-25T09:03:07.386Z,0.60
2022-08-25T09:05:42.788Z,0.70
2022-08-25T09:08:14.776Z,0.52
2022-08-25T09:10:55.940Z,0.70
2022-08-25T09:13:29.924Z,0.73
2022-08-25T09:16:31.827Z,0.70
2022-08-25T09:19:11.932Z,0.70
2022-08-25T09:21:53.945Z,0.68
2022-08-25T09:24:30.170Z,0.60
2022-08-25T09:27:03.003Z,0.80
2022-08-25T09:29:37.505Z,0.98
2022-08-25T09:32:08.029Z,0.70
2022-08-25T09:34:37.951Z,0.80
2022-08-25T09:37:06.469Z,0.70
2022-08-25T09:39:37.066Z,0.77
2022-08-25T09:42:05.814Z,0.90
2022-08-25T09:44:36.204Z,0.70
2022-08-25T09:47:08.277Z,0.65
2022-08-25T09:49:42.844Z,0.90
2022-08-25T09:52:38.391Z,0.70
2022-08-25T09:55:28.855Z,0.60
2022-08-25T09:57:58.360Z,0.70
2022-08-25T10:00:28.781Z,0.82
2022-08-25T10:03:08.002Z,0.70
2022-08-25T10:05:41.202Z,0.80
2022-08-25T10:08:14.687Z,0.80
2022-08-25T10:10:47.376Z,0.80
2022-08-25T10:13:22.580Z,0.90
2022-08-25T10:16:05.055Z,1.17
2022-08-25T10:19:01.688Z,0.90
2022-08-25T10:21:31.585Z,1.00
2022-08-25T10:24:01.707Z,0.80
2022-08-25T10:26:34.939Z,0.77
2022-08-25T10:29:08.344Z,0.88
2022-08-25T10:31:41.476Z,1.20
2022-08-25T10:34:15.103Z,0.85
2022-08-25T10:36:49.405Z,0.80
2022-08-25T10:39:33.906Z,1.15
2022-08-25T10:42:09.062Z,0.93
2022-08-25T10:44:58.677Z,1.05
2022-08-25T10:47:36.701Z,1.08
2022-08-25T10:50:06.806Z,0.90
2022-08-25T10:52:40.347Z,1.00
2022-08-25T10:55:15.233Z,1.00
2022-08-25T10:57:49.046Z,1.10
2022-08-25T11:00:20.297Z,0.90
2022-08-25T11:02:59.717Z,0.80
2022-08-25T11:05:30.312Z,1.05
2022-08-25T11:08:05.436Z,0.73
2022-08-25T11:10:36.388Z,1.10
2022-08-25T11:13:11.329Z,0.90
2022-08-25T11:15:54.594Z,0.90
2022-08-25T11:18:33.019Z,1.08
2022-08-25T11:21:07.377Z,0.95
2022-08-25T11:23:40.341Z,0.80
2022-08-25T11:26:12.358Z,0.90
2022-08-25T11:28:49.452Z,0.90
2022-08-25T11:31:19.395Z,0.98
2022-08-25T11:33:48.138Z,1.00
2022-08-25T11:36:20.105Z,1.10
2022-08-25T11:38:57.405Z,0.98
2022-08-25T11:41:34.081Z,0.77
2022-08-25T11:44:09.749Z,1.00
2022-08-25T11:46:46.653Z,0.90
2022-08-25T11:49:26.583Z,0.98
2022-08-25T11:51:55.391Z,0.98
2022-08-25T11:54:38.789Z,1.00
2022-08-25T11:57:11.880Z,1.20
2022-08-25T12:00:04.173Z,0.90
2022-08-25T12:02:34.915Z,1.00
2022-08-25T12:05:04.674Z,0.90
2022-08-25T12:07:48.465Z,1.00
2022-08-25T12:10:23.824Z,0.95
2022-08-25T12:13:10.325Z,1.08
2022-08-25T12:15:53.930Z,1.00
2022-08-25T12:18:45.610Z,1.00
2022-08-25T12:21:17.065Z,1.13
2022-08-25T12:23:51.587Z,1.00
2022-08-25T12:26:27.738Z,0.88
2022-08-25T12:29:07.674Z,0.88
2022-08-25T12:31:48.425Z,1.17
2022-08-25T12:34:50.544Z,1.05
2022-08-25T12:37:20.721Z,0.95
2022-08-25T12:39:59.186Z,1.02
2022-08-25T12:42:33.441Z,0.90
2022-08-25T12:45:15.032Z,1.00
2022-08-25T12:47:49.244Z,1.17
2022-08-25T12:50:29.376Z,1.08
2022-08-25T12:53:02.037Z,1.00
2022-08-25T12:55:30.656Z,0.90
2022-08-25T12:58:01.403Z,0.95
2022-08-25T13:00:31.205Z,1.05
2022-08-25T13:03:27.164Z,0.82
2022-08-25T13:06:13.596Z,1.00
2022-08-25T13:09:00.229Z,1.30
2022-08-25T13:11:35.105Z,1.20
2022-08-25T13:14:07.580Z,1.08
2022-08-25T13:16:38.969Z,1.02
2022-08-25T13:19:08.941Z,1.10
2022-08-25T13:21:39.997Z,1.30
2022-08-25T13:24:11.259Z,0.82
2022-08-25T13:26:48.191Z,0.90
2022-08-25T13:29:22.263Z,0.95
2022-08-25T13:31:55.635Z,1.08
2022-08-25T13:34:34.588Z,1.00
2022-08-25T13:37:25.415Z,1.10
2022-08-25T13:40:10.191Z,1.10
2022-08-25T13:42:42.467Z,0.98
2022-08-25T13:45:17.262Z,1.08
2022-08-25T13:47:46.495Z,0.90
2022-08-25T13:50:22.958Z,1.15
2022-08-25T13:52:56.031Z,1.08
2022-08-25T13:55:27.633Z,1.30
2022-08-25T13:57:58.276Z,1.10
2022-08-25T14:00:31.521Z,1.20
2022-08-25T14:03:00.973Z,1.10
2022-08-25T14:05:36.106Z,1.00
2022-08-25T14:08:23.607Z,1.13
2022-08-25T14:11:03.896Z,1.13
2022-08-25T14:13:34.068Z,1.27
2022-08-25T14:16:12.430Z,1.17
2022-08-25T14:18:40.974Z,0.88
2022-08-25T14:21:11.713Z,1.10
2022-08-25T14:23:40.623Z,1.20
2022-08-25T14:26:09.090Z,1.02
2022-08-25T14:28:38.416Z,1.00
2022-08-25T14:31:09.705Z,1.15
2022-08-25T14:33:40.554Z,1.10
2022-08-25T14:36:09.321Z,0.95
2022-08-25T14:38:39.030Z,1.10
2022-08-25T14:43:38.389Z,1.23
2022-08-25T14:46:11.195Z,1.02
2022-08-25T14:48:46.498Z,1.30
2022-08-25T14:51:17.522Z,1.10
2022-08-25T14:53:46.185Z,1.17
2022-08-25T14:56:14.640Z,1.10
2022-08-25T14:58:51.186Z,1.10
2022-08-25T15:01:29.029Z,0.90
2022-08-25T15:04:03.329Z,1.20
2022-08-25T15:06:31.981Z,1.10
2022-08-25T15:09:10.946Z,1.13
2022-08-25T15:11:41.722Z,0.90
2022-08-25T15:14:11.005Z,1.02
2022-08-25T15:16:42.099Z,1.10
2022-08-25T15:19:14.536Z,1.00
2022-08-25T15:21:44.793Z,1.10
2022-08-25T15:24:17.468Z,1.05
2022-08-25T15:29:22.273Z,1.17
2022-08-25T15:31:51.531Z,1.00
2022-08-25T15:34:21.381Z,1.00
2022-08-25T15:36:50.676Z,1.00
2022-08-25T15:39:19.676Z,1.00
2022-08-25T15:41:51.727Z,1.00
2022-08-25T15:44:20.418Z,0.80
2022-08-25T15:46:50.166Z,0.90
2022-08-25T15:49:20.809Z,1.08
2022-08-25T15:51:54.410Z,0.90
2022-08-25T15:54:23.519Z,0.98
2022-08-25T15:56:52.001Z,0.90
2022-08-25T15:59:21.798Z,1.00
2022-08-25T16:01:53.745Z,1.10
2022-08-25T16:04:22.728Z,0.80
2022-08-25T16:06:53.800Z,1.15
2022-08-25T16:09:24.159Z,0.90
2022-08-25T16:11:56.878Z,1.20
2022-08-25T16:14:27.513Z,0.95
2022-08-25T16:16:58.447Z,0.90
2022-08-25T16:19:28.140Z,0.98
2022-08-25T16:21:58.306Z,1.15
2022-08-25T16:24:26.906Z,1.40
2022-08-25T16:27:00.239Z,1.00
2022-08-25T16:29:40.046Z,0.90
2022-08-25T16:32:08.598Z,1.38
2022-08-25T16:34:37.822Z,1.23
2022-08-25T16:37:09.734Z,1.02
2022-08-25T16:39:41.361Z,1.10
2022-08-25T16:42:09.893Z,1.38
2022-08-25T16:44:39.918Z,1.20
2022-08-25T16:47:09.262Z,0.90
2022-08-25T16:49:38.002Z,1.20
2022-08-25T16:52:28.380Z,1.00
2022-08-25T16:55:13.056Z,1.10
2022-08-25T16:57:43.057Z,1.10
2022-08-25T17:00:14.006Z,1.20
2022-08-25T17:02:43.557Z,0.90
2022-08-25T17:05:13.877Z,1.10
2022-08-25T17:07:42.494Z,0.90
2022-08-25T17:10:12.815Z,1.02
2022-08-25T17:12:41.495Z,0.90
2022-08-25T17:15:10.233Z,0.80
2022-08-25T17:17:38.701Z,1.10
2022-08-25T17:20:08.308Z,0.82
2022-08-25T17:22:37.963Z,1.08
2022-08-25T17:25:08.460Z,0.82
2022-08-25T17:27:38.327Z,0.70
2022-08-25T17:30:08.590Z,0.80
2022-08-25T17:32:37.240Z,0.80
2022-08-25T17:35:06.317Z,0.88
2022-08-25T17:37:34.791Z,1.00
2022-08-25T17:40:03.638Z,0.90
2022-08-25T17:42:32.640Z,0.90
2022-08-25T17:45:02.661Z,0.90
2022-08-25T17:47:31.188Z,1.00
2022-08-25T17:50:01.719Z,0.90
2022-08-25T17:52:31.201Z,0.90
2022-08-25T17:54:59.697Z,0.80
2022-08-25T17:57:29.054Z,0.70
2022-08-25T17:59:57.538Z,0.90
2022-08-25T18:02:27.449Z,0.70
2022-08-25T18:04:56.915Z,0.90
2022-08-25T18:07:27.241Z,0.80
2022-08-25T18:09:55.770Z,0.90
2022-08-25T18:12:27.494Z,0.88
2022-08-25T18:14:56.181Z,1.08
2022-08-25T18:17:28.878Z,0.80
2022-08-25T18:19:57.867Z,0.98
2022-08-25T18:22:26.734Z,1.30
2022-08-25T18:24:57.118Z,1.10
2022-08-25T18:27:25.625Z,1.20
2022-08-25T18:29:54.600Z,1.10
2022-08-25T18:32:25.969Z,1.02
2022-08-25T18:34:56.189Z,1.02
2022-08-25T18:37:42.913Z,1.00
2022-08-25T18:40:24.824Z,1.00
2022-08-25T18:42:54.314Z,0.95
2022-08-25T18:45:24.653Z,0.95
2022-08-25T18:47:57.414Z,0.90
2022-08-25T18:50:28.869Z,1.40
2022-08-25T18:52:57.705Z,1.08
2022-08-25T18:55:26.357Z,0.90
2022-08-25T18:57:54.863Z,1.02
2022-08-25T19:00:24.981Z,0.90
2022-08-25T19:02:55.012Z,1.13
2022-08-25T19:05:28.068Z,1.02
2022-08-25T19:07:58.513Z,1.00
2022-08-25T19:10:28.856Z,1.10
2022-08-25T19:12:58.040Z,0.88
2022-08-25T19:15:31.003Z,1.00
2022-08-25T19:18:00.371Z,1.17
2022-08-25T19:20:30.544Z,0.98
2022-08-25T19:23:00.696Z,1.20
2022-08-25T19:25:33.282Z,0.90
2022-08-25T19:28:03.341Z,0.95
2022-08-25T19:30:32.070Z,1.13
2022-08-25T19:33:01.427Z,1.00
2022-08-25T19:35:32.006Z,1.08
2022-08-25T19:38:02.655Z,1.00
2022-08-25T19:40:37.814Z,1.00
2022-08-25T19:43:08.679Z,1.10
2022-08-25T19:45:38.373Z,1.25
2022-08-25T19:48:09.069Z,1.30
2022-08-25T19:50:38.341Z,1.20
2022-08-25T19:53:10.304Z,1.17
2022-08-25T19:55:42.793Z,1.40
2022-08-25T19:58:12.062Z,2.08
2022-08-25T20:00:40.616Z,1.40
2022-08-25T20:03:09.928Z,1.50
2022-08-25T20:05:39.553Z,1.63
2022-08-25T20:08:08.477Z,1.30
2022-08-25T20:10:41.924Z,1.20
2022-08-25T20:13:10.966Z,1.40
2022-08-25T20:15:39.542Z,1.33
2022-08-25T20:18:08.216Z,1.38
2022-08-25T20:20:36.805Z,1.50
2022-08-25T20:23:23.115Z,1.60
2022-08-25T20:25:52.968Z,1.40
2022-08-25T20:28:21.449Z,1.60
2022-08-25T20:30:49.977Z,1.63
2022-08-25T20:33:22.841Z,1.38
2022-08-25T20:35:53.175Z,1.23
2022-08-25T20:38:21.896Z,1.33
2022-08-25T20:40:50.368Z,1.50
2022-08-25T20:43:20.765Z,1.40
2022-08-25T20:45:49.538Z,1.20
2022-08-25T20:48:18.333Z,1.48
2022-08-25T20:50:57.182Z,1.50
2022-08-25T20:53:27.112Z,1.70
2022-08-25T20:55:55.601Z,1.40
2022-08-25T20:58:26.411Z,1.52
2022-08-25T21:00:55.426Z,1.30
2022-08-25T21:03:24.240Z,1.40
2022-08-25T21:05:54.027Z,1.60
2022-08-25T21:08:23.675Z,1.40
2022-08-25T21:10:53.845Z,1.65
2022-08-25T21:13:22.828Z,1.50
2022-08-25T21:15:52.826Z,1.48
2022-08-25T21:18:21.313Z,1.50
2022-08-25T21:20:50.065Z,1.60
2022-08-25T21:23:18.531Z,1.70
2022-08-25T21:25:47.120Z,1.60
2022-08-25T21:28:15.630Z,1.50
2022-08-25T21:30:44.777Z,1.50
2022-08-25T21:33:17.337Z,1.42
2022-08-25T21:35:47.107Z,1.30
2022-08-25T21:38:15.621Z,1.55
2022-08-25T21:40:44.851Z,1.30
2022-08-25T21:43:13.680Z,1.52
2022-08-25T21:45:46.715Z,1.42
2022-08-25T21:48:17.132Z,1.50
2022-08-25T21:50:46.342Z,1.48
2022-08-25T21:53:14.805Z,1.40
2022-08-25T21:55:44.286Z,1.30
2022-08-25T21:58:13.082Z,1.30
2022-08-25T22:00:42.017Z,1.80
2022-08-25T22:03:10.665Z,1.50
2022-08-25T22:05:41.361Z,1.50
2022-08-25T22:08:14.100Z,1.50
2022-08-25T22:10:44.610Z,1.42
2022-08-25T22:13:13.099Z,1.45
2022-08-25T22:15:41.617Z,1.23
2022-08-25T22:18:10.101Z,1.35
2022-08-25T22:20:39.185Z,1.75
2022-08-25T22:23:20.289Z,1.40
2022-08-25T22:25:49.482Z,1.58
2022-08-25T22:28:19.564Z,1.77
2022-08-25T22:30:48.232Z,1.52
2022-08-25T22:33:16.775Z,1.50
2022-08-25T22:35:45.308Z,1.75
2022-08-25T22:38:15.200Z,2.03
2022-08-25T22:40:43.632Z,1.80
2022-08-25T22:43:12.094Z,1.70
2022-08-25T22:45:40.661Z,1.90
2022-08-25T22:48:09.233Z,1.60
2022-08-25T22:50:38.125Z,2.00
2022-08-25T22:53:06.808Z,1.50
2022-08-25T22:55:42.924Z,1.52
2022-08-25T22:58:12.455Z,1.60
2022-08-25T23:00:41.908Z,1.45
2022-08-25T23:03:11.610Z,1.88
2022-08-25T23:05:40.544Z,1.50
2022-08-25T23:08:09.008Z,1.50
2022-08-25T23:10:38.877Z,1.80
2022-08-25T23:13:07.695Z,1.58
2022-08-25T23:15:36.316Z,1.90
2022-08-25T23:18:05.406Z,1.85
2022-08-25T23:20:51.292Z,1.60
2022-08-25T23:23:19.777Z,1.70
2022-08-25T23:25:49.617Z,1.50
2022-08-25T23:28:18.153Z,1.95
2022-08-25T23:30:57.306Z,1.88
2022-08-25T23:33:28.555Z,1.73
2022-08-25T23:36:00.989Z,1.75
2022-08-25T23:38:29.611Z,1.52
2022-08-25T23:41:00.349Z,1.80
2022-08-25T23:43:28.799Z,2.00
2022-08-25T23:45:57.523Z,1.92
2022-08-25T23:48:26.442Z,2.15
2022-08-25T23:50:55.004Z,1.80
2022-08-25T23:53:23.505Z,1.50
2022-08-25T23:55:54.119Z,1.90
2022-08-25T23:58:24.432Z,2.20
